sensor_id;sensor_type;location;lat;lon;timestamp;temperature;humidity
22645;DHT22;11489;50.834;6.752;2024-02-04T00:00:28;9.90;97.90
22645;DHT22;11489;50.834;6.752;2024-02-04T00:02:53;9.90;98.20
22645;DHT22;11489;50.834;6.752;2024-02-04T00:05:19;9.90;97.90
22645;DHT22;11489;50.834;6.752;2024-02-04T00:07:45;9.90;97.90
22645;DHT22;11489;50.834;6.752;2024-02-04T00:10:11;9.80;97.90
22645;DHT22;11489;50.834;6.752;2024-02-04T00:12:37;9.90;98.00
22645;DHT22;11489;50.834;6.752;2024-02-04T00:15:03;9.80;98.00
22645;DHT22;11489;50.834;6.752;2024-02-04T00:17:32;9.80;98.10
22645;DHT22;11489;50.834;6.752;2024-02-04T00:20:00;9.80;98.10
22645;DHT22;11489;50.834;6.752;2024-02-04T00:22:27;9.80;98.10
22645;DHT22;11489;50.834;6.752;2024-02-04T00:24:52;9.80;98.20
22645;DHT22;11489;50.834;6.752;2024-02-04T00:27:18;9.70;98.20
22645;DHT22;11489;50.834;6.752;2024-02-04T00:29:44;9.70;98.20
22645;DHT22;11489;50.834;6.752;2024-02-04T00:32:10;9.70;98.20
22645;DHT22;11489;50.834;6.752;2024-02-04T00:34:35;9.70;98.30
22645;DHT22;11489;50.834;6.752;2024-02-04T00:37:01;9.70;98.30
22645;DHT22;11489;50.834;6.752;2024-02-04T00:39:27;9.70;98.30
22645;DHT22;11489;50.834;6.752;2024-02-04T00:41:52;9.70;98.40
22645;DHT22;11489;50.834;6.752;2024-02-04T00:44:18;9.70;98.40
22645;DHT22;11489;50.834;6.752;2024-02-04T00:46:44;9.70;98.40
22645;DHT22;11489;50.834;6.752;2024-02-04T00:49:09;9.70;98.40
22645;DHT22;11489;50.834;6.752;2024-02-04T00:51:35;9.70;98.40
22645;DHT22;11489;50.834;6.752;2024-02-04T00:54:01;9.70;98.40
22645;DHT22;11489;50.834;6.752;2024-02-04T00:56:27;9.70;98.50
22645;DHT22;11489;50.834;6.752;2024-02-04T00:58:53;9.70;98.50
22645;DHT22;11489;50.834;6.752;2024-02-04T01:01:18;9.70;98.50
22645;DHT22;11489;50.834;6.752;2024-02-04T01:03:47;9.70;98.50
22645;DHT22;11489;50.834;6.752;2024-02-04T01:06:13;9.70;98.50
22645;DHT22;11489;50.834;6.752;2024-02-04T01:08:39;9.70;98.50
22645;DHT22;11489;50.834;6.752;2024-02-04T01:11:05;9.70;98.60
22645;DHT22;11489;50.834;6.752;2024-02-04T01:13:31;9.70;98.60
22645;DHT22;11489;50.834;6.752;2024-02-04T01:15:57;9.70;98.60
22645;DHT22;11489;50.834;6.752;2024-02-04T01:18:23;9.70;98.60
22645;DHT22;11489;50.834;6.752;2024-02-04T01:20:48;9.70;98.60
22645;DHT22;11489;50.834;6.752;2024-02-04T01:23:14;9.70;98.60
22645;DHT22;11489;50.834;6.752;2024-02-04T01:25:43;9.70;98.60
22645;DHT22;11489;50.834;6.752;2024-02-04T01:28:09;9.70;98.60
22645;DHT22;11489;50.834;6.752;2024-02-04T01:30:35;9.70;98.60
22645;DHT22;11489;50.834;6.752;2024-02-04T01:33:00;9.70;98.70
22645;DHT22;11489;50.834;6.752;2024-02-04T01:35:26;9.70;98.70
22645;DHT22;11489;50.834;6.752;2024-02-04T01:37:52;9.70;98.70
22645;DHT22;11489;50.834;6.752;2024-02-04T01:40:17;9.70;98.70
22645;DHT22;11489;50.834;6.752;2024-02-04T01:42:43;9.70;98.80
22645;DHT22;11489;50.834;6.752;2024-02-04T01:45:09;9.70;98.80
22645;DHT22;11489;50.834;6.752;2024-02-04T01:47:35;9.70;98.90
22645;DHT22;11489;50.834;6.752;2024-02-04T01:50:01;9.80;98.90
22645;DHT22;11489;50.834;6.752;2024-02-04T01:52:27;9.80;98.90
22645;DHT22;11489;50.834;6.752;2024-02-04T01:54:53;9.80;98.90
22645;DHT22;11489;50.834;6.752;2024-02-04T01:57:19;9.80;98.80
22645;DHT22;11489;50.834;6.752;2024-02-04T01:59:45;9.80;98.80
22645;DHT22;11489;50.834;6.752;2024-02-04T02:02:13;9.90;98.80
22645;DHT22;11489;50.834;6.752;2024-02-04T02:04:39;9.90;98.80
22645;DHT22;11489;50.834;6.752;2024-02-04T02:07:04;9.90;98.80
22645;DHT22;11489;50.834;6.752;2024-02-04T02:09:33;9.90;98.70
22645;DHT22;11489;50.834;6.752;2024-02-04T02:12:09;9.90;98.70
22645;DHT22;11489;50.834;6.752;2024-02-04T02:14:40;10.00;98.70
22645;DHT22;11489;50.834;6.752;2024-02-04T02:17:11;9.90;98.70
22645;DHT22;11489;50.834;6.752;2024-02-04T02:19:52;9.90;98.70
22645;DHT22;11489;50.834;6.752;2024-02-04T02:22:29;10.00;98.70
22645;DHT22;11489;50.834;6.752;2024-02-04T02:24:58;10.00;98.70
22645;DHT22;11489;50.834;6.752;2024-02-04T02:27:25;10.00;98.70
22645;DHT22;11489;50.834;6.752;2024-02-04T02:29:51;10.00;98.70
22645;DHT22;11489;50.834;6.752;2024-02-04T02:32:17;10.00;98.70
22645;DHT22;11489;50.834;6.752;2024-02-04T02:34:43;10.00;99.00
22645;DHT22;11489;50.834;6.752;2024-02-04T02:37:24;10.00;98.70
22645;DHT22;11489;50.834;6.752;2024-02-04T02:40:06;10.00;98.70
22645;DHT22;11489;50.834;6.752;2024-02-04T02:42:33;10.00;98.80
22645;DHT22;11489;50.834;6.752;2024-02-04T02:45:00;10.10;98.80
22645;DHT22;11489;50.834;6.752;2024-02-04T02:47:29;10.00;98.80
22645;DHT22;11489;50.834;6.752;2024-02-04T02:49:55;10.10;98.80
22645;DHT22;11489;50.834;6.752;2024-02-04T02:52:21;10.10;98.80
22645;DHT22;11489;50.834;6.752;2024-02-04T02:54:47;10.10;98.80
22645;DHT22;11489;50.834;6.752;2024-02-04T02:57:12;10.10;98.80
22645;DHT22;11489;50.834;6.752;2024-02-04T02:59:38;10.20;98.80
22645;DHT22;11489;50.834;6.752;2024-02-04T03:02:04;10.20;98.70
22645;DHT22;11489;50.834;6.752;2024-02-04T03:04:30;10.20;98.70
22645;DHT22;11489;50.834;6.752;2024-02-04T03:06:55;10.20;98.70
22645;DHT22;11489;50.834;6.752;2024-02-04T03:09:21;10.20;98.70
22645;DHT22;11489;50.834;6.752;2024-02-04T03:11:46;10.20;98.70
22645;DHT22;11489;50.834;6.752;2024-02-04T03:14:15;10.20;98.70
22645;DHT22;11489;50.834;6.752;2024-02-04T03:16:46;10.20;99.00
22645;DHT22;11489;50.834;6.752;2024-02-04T03:19:12;10.20;98.80
22645;DHT22;11489;50.834;6.752;2024-02-04T03:21:37;10.20;98.70
22645;DHT22;11489;50.834;6.752;2024-02-04T03:24:03;10.30;98.80
22645;DHT22;11489;50.834;6.752;2024-02-04T03:26:29;10.30;98.80
22645;DHT22;11489;50.834;6.752;2024-02-04T03:28:54;10.30;98.80
22645;DHT22;11489;50.834;6.752;2024-02-04T03:31:21;10.30;98.80
22645;DHT22;11489;50.834;6.752;2024-02-04T03:33:47;10.30;98.80
22645;DHT22;11489;50.834;6.752;2024-02-04T03:36:15;10.30;98.80
22645;DHT22;11489;50.834;6.752;2024-02-04T03:38:41;10.40;98.80
22645;DHT22;11489;50.834;6.752;2024-02-04T03:41:06;10.30;98.80
22645;DHT22;11489;50.834;6.752;2024-02-04T03:43:32;10.40;98.80
22645;DHT22;11489;50.834;6.752;2024-02-04T03:45:57;10.40;98.80
22645;DHT22;11489;50.834;6.752;2024-02-04T03:48:23;10.40;98.80
22645;DHT22;11489;50.834;6.752;2024-02-04T03:50:49;10.40;98.80
22645;DHT22;11489;50.834;6.752;2024-02-04T03:53:14;10.50;98.80
22645;DHT22;11489;50.834;6.752;2024-02-04T03:55:40;10.50;98.80
22645;DHT22;11489;50.834;6.752;2024-02-04T03:58:06;10.50;98.70
22645;DHT22;11489;50.834;6.752;2024-02-04T04:00:31;10.50;98.70
22645;DHT22;11489;50.834;6.752;2024-02-04T04:02:57;10.50;98.60
22645;DHT22;11489;50.834;6.752;2024-02-04T04:05:23;10.50;98.60
22645;DHT22;11489;50.834;6.752;2024-02-04T04:07:48;10.50;98.50
22645;DHT22;11489;50.834;6.752;2024-02-04T04:10:14;10.50;98.50
22645;DHT22;11489;50.834;6.752;2024-02-04T04:12:40;10.50;98.50
22645;DHT22;11489;50.834;6.752;2024-02-04T04:15:06;10.50;98.50
22645;DHT22;11489;50.834;6.752;2024-02-04T04:17:31;10.50;98.50
22645;DHT22;11489;50.834;6.752;2024-02-04T04:19:57;10.40;98.50
22645;DHT22;11489;50.834;6.752;2024-02-04T04:22:23;10.40;98.90
22645;DHT22;11489;50.834;6.752;2024-02-04T04:24:48;10.40;98.60
22645;DHT22;11489;50.834;6.752;2024-02-04T04:27:14;10.40;98.70
22645;DHT22;11489;50.834;6.752;2024-02-04T04:29:40;10.40;98.70
22645;DHT22;11489;50.834;6.752;2024-02-04T04:32:05;10.40;98.60
22645;DHT22;11489;50.834;6.752;2024-02-04T04:34:31;10.40;98.70
22645;DHT22;11489;50.834;6.752;2024-02-04T04:36:57;10.40;98.70
22645;DHT22;11489;50.834;6.752;2024-02-04T04:39:22;10.40;98.70
22645;DHT22;11489;50.834;6.752;2024-02-04T04:41:48;10.40;98.70
22645;DHT22;11489;50.834;6.752;2024-02-04T04:44:14;10.40;98.70
22645;DHT22;11489;50.834;6.752;2024-02-04T04:46:40;10.40;98.70
22645;DHT22;11489;50.834;6.752;2024-02-04T04:49:06;10.50;98.80
22645;DHT22;11489;50.834;6.752;2024-02-04T04:51:31;10.50;98.80
22645;DHT22;11489;50.834;6.752;2024-02-04T04:53:57;10.50;98.80
22645;DHT22;11489;50.834;6.752;2024-02-04T04:56:23;10.50;98.80
22645;DHT22;11489;50.834;6.752;2024-02-04T04:58:49;10.50;98.80
22645;DHT22;11489;50.834;6.752;2024-02-04T05:01:16;10.50;98.80
22645;DHT22;11489;50.834;6.752;2024-02-04T05:03:42;10.50;98.70
22645;DHT22;11489;50.834;6.752;2024-02-04T05:06:07;10.50;98.70
22645;DHT22;11489;50.834;6.752;2024-02-04T05:08:33;10.50;98.60
22645;DHT22;11489;50.834;6.752;2024-02-04T05:10:58;10.50;98.70
22645;DHT22;11489;50.834;6.752;2024-02-04T05:13:24;10.50;98.60
22645;DHT22;11489;50.834;6.752;2024-02-04T05:15:50;10.50;98.60
22645;DHT22;11489;50.834;6.752;2024-02-04T05:18:15;10.50;98.60
22645;DHT22;11489;50.834;6.752;2024-02-04T05:20:41;10.50;98.60
22645;DHT22;11489;50.834;6.752;2024-02-04T05:23:09;10.50;98.60
22645;DHT22;11489;50.834;6.752;2024-02-04T05:25:34;10.50;98.60
22645;DHT22;11489;50.834;6.752;2024-02-04T05:28:00;10.50;98.60
22645;DHT22;11489;50.834;6.752;2024-02-04T05:30:26;10.50;98.60
22645;DHT22;11489;50.834;6.752;2024-02-04T05:32:51;10.50;98.60
22645;DHT22;11489;50.834;6.752;2024-02-04T05:35:17;10.50;98.60
22645;DHT22;11489;50.834;6.752;2024-02-04T05:37:43;10.50;98.60
22645;DHT22;11489;50.834;6.752;2024-02-04T05:40:09;10.50;98.60
22645;DHT22;11489;50.834;6.752;2024-02-04T05:42:34;10.50;98.60
22645;DHT22;11489;50.834;6.752;2024-02-04T05:45:02;10.50;98.60
22645;DHT22;11489;50.834;6.752;2024-02-04T05:47:28;10.50;98.60
22645;DHT22;11489;50.834;6.752;2024-02-04T05:49:54;10.50;98.60
22645;DHT22;11489;50.834;6.752;2024-02-04T05:52:19;10.50;98.60
22645;DHT22;11489;50.834;6.752;2024-02-04T05:54:45;10.50;98.60
22645;DHT22;11489;50.834;6.752;2024-02-04T05:57:11;10.50;98.60
22645;DHT22;11489;50.834;6.752;2024-02-04T05:59:37;10.50;98.50
22645;DHT22;11489;50.834;6.752;2024-02-04T06:02:04;10.50;98.50
22645;DHT22;11489;50.834;6.752;2024-02-04T06:04:30;10.50;98.50
22645;DHT22;11489;50.834;6.752;2024-02-04T06:06:55;10.50;98.50
22645;DHT22;11489;50.834;6.752;2024-02-04T06:09:21;10.50;98.50
22645;DHT22;11489;50.834;6.752;2024-02-04T06:11:47;10.50;98.50
22645;DHT22;11489;50.834;6.752;2024-02-04T06:14:13;10.50;98.50
22645;DHT22;11489;50.834;6.752;2024-02-04T06:16:38;10.50;98.50
22645;DHT22;11489;50.834;6.752;2024-02-04T06:19:04;10.50;98.50
22645;DHT22;11489;50.834;6.752;2024-02-04T06:21:31;10.50;98.50
22645;DHT22;11489;50.834;6.752;2024-02-04T06:23:56;10.50;98.50
22645;DHT22;11489;50.834;6.752;2024-02-04T06:26:22;10.50;98.50
22645;DHT22;11489;50.834;6.752;2024-02-04T06:28:48;10.50;98.90
22645;DHT22;11489;50.834;6.752;2024-02-04T06:31:14;10.50;98.60
22645;DHT22;11489;50.834;6.752;2024-02-04T06:33:40;10.50;98.60
22645;DHT22;11489;50.834;6.752;2024-02-04T06:36:09;10.50;98.60
22645;DHT22;11489;50.834;6.752;2024-02-04T06:38:36;10.50;98.60
22645;DHT22;11489;50.834;6.752;2024-02-04T06:41:01;10.50;98.60
22645;DHT22;11489;50.834;6.752;2024-02-04T06:43:27;10.50;98.60
22645;DHT22;11489;50.834;6.752;2024-02-04T06:45:53;10.50;98.60
22645;DHT22;11489;50.834;6.752;2024-02-04T06:48:19;10.50;98.60
22645;DHT22;11489;50.834;6.752;2024-02-04T06:50:45;10.40;98.50
22645;DHT22;11489;50.834;6.752;2024-02-04T06:53:13;10.50;98.50
22645;DHT22;11489;50.834;6.752;2024-02-04T06:55:39;10.40;98.50
22645;DHT22;11489;50.834;6.752;2024-02-04T06:58:04;10.40;98.40
22645;DHT22;11489;50.834;6.752;2024-02-04T07:00:30;10.40;98.50
22645;DHT22;11489;50.834;6.752;2024-02-04T07:02:56;10.40;98.50
22645;DHT22;11489;50.834;6.752;2024-02-04T07:05:22;10.30;98.50
22645;DHT22;11489;50.834;6.752;2024-02-04T07:07:48;10.30;98.60
22645;DHT22;11489;50.834;6.752;2024-02-04T07:10:15;10.30;98.60
22645;DHT22;11489;50.834;6.752;2024-02-04T07:12:41;10.30;98.60
22645;DHT22;11489;50.834;6.752;2024-02-04T07:15:07;10.30;98.70
22645;DHT22;11489;50.834;6.752;2024-02-04T07:17:34;10.30;98.70
22645;DHT22;11489;50.834;6.752;2024-02-04T07:20:01;10.30;98.70
22645;DHT22;11489;50.834;6.752;2024-02-04T07:22:26;10.20;98.60
22645;DHT22;11489;50.834;6.752;2024-02-04T07:24:52;10.20;98.60
22645;DHT22;11489;50.834;6.752;2024-02-04T07:27:18;10.20;99.00
22645;DHT22;11489;50.834;6.752;2024-02-04T07:29:43;10.20;98.60
22645;DHT22;11489;50.834;6.752;2024-02-04T07:32:09;10.20;98.70
22645;DHT22;11489;50.834;6.752;2024-02-04T07:34:35;10.10;98.70
22645;DHT22;11489;50.834;6.752;2024-02-04T07:37:01;10.20;98.70
22645;DHT22;11489;50.834;6.752;2024-02-04T07:39:26;10.10;98.70
22645;DHT22;11489;50.834;6.752;2024-02-04T07:41:52;10.10;98.80
22645;DHT22;11489;50.834;6.752;2024-02-04T07:44:19;10.10;98.80
22645;DHT22;11489;50.834;6.752;2024-02-04T07:46:45;10.10;98.90
22645;DHT22;11489;50.834;6.752;2024-02-04T07:49:10;10.10;98.90
22645;DHT22;11489;50.834;6.752;2024-02-04T07:51:36;10.10;99.00
22645;DHT22;11489;50.834;6.752;2024-02-04T07:54:03;10.10;99.00
22645;DHT22;11489;50.834;6.752;2024-02-04T07:56:29;10.20;99.00
22645;DHT22;11489;50.834;6.752;2024-02-04T07:58:55;10.20;99.00
22645;DHT22;11489;50.834;6.752;2024-02-04T08:01:20;10.20;99.10
22645;DHT22;11489;50.834;6.752;2024-02-04T08:03:46;10.20;99.10
22645;DHT22;11489;50.834;6.752;2024-02-04T08:06:12;10.20;99.10
22645;DHT22;11489;50.834;6.752;2024-02-04T08:08:38;10.20;99.10
22645;DHT22;11489;50.834;6.752;2024-02-04T08:11:04;10.30;99.10
22645;DHT22;11489;50.834;6.752;2024-02-04T08:13:29;10.30;99.10
22645;DHT22;11489;50.834;6.752;2024-02-04T08:15:55;10.30;99.10
22645;DHT22;11489;50.834;6.752;2024-02-04T08:18:21;10.40;99.20
22645;DHT22;11489;50.834;6.752;2024-02-04T08:20:46;10.40;99.10
22645;DHT22;11489;50.834;6.752;2024-02-04T08:23:12;10.40;99.20
22645;DHT22;11489;50.834;6.752;2024-02-04T08:25:37;10.40;99.20
22645;DHT22;11489;50.834;6.752;2024-02-04T08:28:03;10.50;99.20
22645;DHT22;11489;50.834;6.752;2024-02-04T08:30:29;10.50;99.20
22645;DHT22;11489;50.834;6.752;2024-02-04T08:32:56;10.60;99.20
22645;DHT22;11489;50.834;6.752;2024-02-04T08:35:22;10.60;99.00
22645;DHT22;11489;50.834;6.752;2024-02-04T08:37:48;10.60;99.10
22645;DHT22;11489;50.834;6.752;2024-02-04T08:40:13;10.70;99.20
22645;DHT22;11489;50.834;6.752;2024-02-04T08:42:39;10.70;99.10
22645;DHT22;11489;50.834;6.752;2024-02-04T08:45:06;10.70;99.10
22645;DHT22;11489;50.834;6.752;2024-02-04T08:47:31;10.80;99.00
22645;DHT22;11489;50.834;6.752;2024-02-04T08:49:57;10.70;98.90
22645;DHT22;11489;50.834;6.752;2024-02-04T08:52:23;10.80;98.90
22645;DHT22;11489;50.834;6.752;2024-02-04T08:54:50;10.80;98.80
22645;DHT22;11489;50.834;6.752;2024-02-04T08:57:15;10.70;98.80
22645;DHT22;11489;50.834;6.752;2024-02-04T08:59:42;10.70;98.80
22645;DHT22;11489;50.834;6.752;2024-02-04T09:02:07;10.70;98.80
22645;DHT22;11489;50.834;6.752;2024-02-04T09:04:33;10.70;98.80
22645;DHT22;11489;50.834;6.752;2024-02-04T09:07:06;10.70;98.90
22645;DHT22;11489;50.834;6.752;2024-02-04T09:09:32;10.70;99.00
22645;DHT22;11489;50.834;6.752;2024-02-04T09:11:57;10.70;99.00
22645;DHT22;11489;50.834;6.752;2024-02-04T09:14:23;10.70;99.00
22645;DHT22;11489;50.834;6.752;2024-02-04T09:16:49;10.70;99.00
22645;DHT22;11489;50.834;6.752;2024-02-04T09:19:14;10.80;99.00
22645;DHT22;11489;50.834;6.752;2024-02-04T09:21:40;10.80;99.10
22645;DHT22;11489;50.834;6.752;2024-02-04T09:24:06;10.80;99.10
22645;DHT22;11489;50.834;6.752;2024-02-04T09:26:31;10.80;99.00
22645;DHT22;11489;50.834;6.752;2024-02-04T09:28:57;10.80;99.00
22645;DHT22;11489;50.834;6.752;2024-02-04T09:31:23;10.80;99.00
22645;DHT22;11489;50.834;6.752;2024-02-04T09:33:48;10.90;99.00
22645;DHT22;11489;50.834;6.752;2024-02-04T09:36:14;10.90;99.00
22645;DHT22;11489;50.834;6.752;2024-02-04T09:38:40;10.90;99.00
22645;DHT22;11489;50.834;6.752;2024-02-04T09:41:05;11.00;99.10
22645;DHT22;11489;50.834;6.752;2024-02-04T09:43:32;11.00;99.20
22645;DHT22;11489;50.834;6.752;2024-02-04T09:45:59;11.10;99.20
22645;DHT22;11489;50.834;6.752;2024-02-04T09:48:25;11.10;99.20
22645;DHT22;11489;50.834;6.752;2024-02-04T09:50:52;11.10;99.10
22645;DHT22;11489;50.834;6.752;2024-02-04T09:53:21;11.20;99.10
22645;DHT22;11489;50.834;6.752;2024-02-04T09:55:52;11.20;98.90
22645;DHT22;11489;50.834;6.752;2024-02-04T09:58:20;11.20;98.90
22645;DHT22;11489;50.834;6.752;2024-02-04T10:00:47;11.20;98.80
22645;DHT22;11489;50.834;6.752;2024-02-04T10:03:12;11.30;98.90
22645;DHT22;11489;50.834;6.752;2024-02-04T10:05:38;11.30;99.10
22645;DHT22;11489;50.834;6.752;2024-02-04T10:08:04;11.20;98.70
22645;DHT22;11489;50.834;6.752;2024-02-04T10:10:30;11.20;98.60
22645;DHT22;11489;50.834;6.752;2024-02-04T10:12:57;11.20;98.60
22645;DHT22;11489;50.834;6.752;2024-02-04T10:15:23;11.20;98.60
22645;DHT22;11489;50.834;6.752;2024-02-04T10:17:49;11.20;98.60
22645;DHT22;11489;50.834;6.752;2024-02-04T10:20:15;11.20;98.70
22645;DHT22;11489;50.834;6.752;2024-02-04T10:22:41;11.20;98.90
22645;DHT22;11489;50.834;6.752;2024-02-04T10:25:10;11.30;99.10
22645;DHT22;11489;50.834;6.752;2024-02-04T10:27:41;11.30;99.40
22645;DHT22;11489;50.834;6.752;2024-02-04T10:30:07;11.40;99.60
22645;DHT22;11489;50.834;6.752;2024-02-04T10:32:34;11.50;99.60
22645;DHT22;11489;50.834;6.752;2024-02-04T10:34:59;11.60;99.60
22645;DHT22;11489;50.834;6.752;2024-02-04T10:37:26;11.70;99.60
22645;DHT22;11489;50.834;6.752;2024-02-04T10:39:52;11.80;99.50
22645;DHT22;11489;50.834;6.752;2024-02-04T10:42:24;11.80;99.40
22645;DHT22;11489;50.834;6.752;2024-02-04T10:44:53;11.90;99.30
22645;DHT22;11489;50.834;6.752;2024-02-04T10:47:22;12.00;99.20
22645;DHT22;11489;50.834;6.752;2024-02-04T10:49:52;12.00;99.10
22645;DHT22;11489;50.834;6.752;2024-02-04T10:52:22;12.00;98.90
22645;DHT22;11489;50.834;6.752;2024-02-04T10:54:49;12.10;98.90
22645;DHT22;11489;50.834;6.752;2024-02-04T10:57:20;12.10;98.90
22645;DHT22;11489;50.834;6.752;2024-02-04T10:59:48;12.10;98.90
22645;DHT22;11489;50.834;6.752;2024-02-04T11:02:15;12.10;98.90
22645;DHT22;11489;50.834;6.752;2024-02-04T11:04:42;12.20;98.80
22645;DHT22;11489;50.834;6.752;2024-02-04T11:07:10;12.20;98.70
22645;DHT22;11489;50.834;6.752;2024-02-04T11:09:37;12.20;98.70
22645;DHT22;11489;50.834;6.752;2024-02-04T11:12:08;12.20;98.70
22645;DHT22;11489;50.834;6.752;2024-02-04T11:14:35;12.20;98.70
22645;DHT22;11489;50.834;6.752;2024-02-04T11:17:17;12.30;98.70
22645;DHT22;11489;50.834;6.752;2024-02-04T11:25:49;12.20;97.80
22645;DHT22;11489;50.834;6.752;2024-02-04T11:28:16;12.20;98.10
22645;DHT22;11489;50.834;6.752;2024-02-04T11:30:44;12.10;98.20
22645;DHT22;11489;50.834;6.752;2024-02-04T11:33:11;12.00;97.80
22645;DHT22;11489;50.834;6.752;2024-02-04T11:35:37;12.00;97.90
22645;DHT22;11489;50.834;6.752;2024-02-04T11:38:04;11.90;98.00
22645;DHT22;11489;50.834;6.752;2024-02-04T11:40:37;11.80;98.10
22645;DHT22;11489;50.834;6.752;2024-02-04T11:43:07;11.80;98.10
22645;DHT22;11489;50.834;6.752;2024-02-04T11:45:43;11.80;98.20
22645;DHT22;11489;50.834;6.752;2024-02-04T11:48:11;11.70;98.20
22645;DHT22;11489;50.834;6.752;2024-02-04T11:50:38;11.70;98.30
22645;DHT22;11489;50.834;6.752;2024-02-04T11:53:10;11.70;98.50
22645;DHT22;11489;50.834;6.752;2024-02-04T11:55:36;11.70;98.60
22645;DHT22;11489;50.834;6.752;2024-02-04T11:58:05;11.70;98.80
22645;DHT22;11489;50.834;6.752;2024-02-04T12:00:33;11.70;99.10
22645;DHT22;11489;50.834;6.752;2024-02-04T12:03:03;11.70;99.40
22645;DHT22;11489;50.834;6.752;2024-02-04T12:05:34;11.80;99.70
22645;DHT22;11489;50.834;6.752;2024-02-04T12:08:04;11.90;99.60
22645;DHT22;11489;50.834;6.752;2024-02-04T12:10:31;12.00;99.40
22645;DHT22;11489;50.834;6.752;2024-02-04T12:12:59;12.10;99.20
22645;DHT22;11489;50.834;6.752;2024-02-04T12:15:28;12.10;99.00
22645;DHT22;11489;50.834;6.752;2024-02-04T12:17:54;12.10;98.90
22645;DHT22;11489;50.834;6.752;2024-02-04T12:20:19;12.10;98.80
22645;DHT22;11489;50.834;6.752;2024-02-04T12:22:45;12.10;98.70
22645;DHT22;11489;50.834;6.752;2024-02-04T12:25:11;12.20;98.60
22645;DHT22;11489;50.834;6.752;2024-02-04T12:27:37;12.20;98.50
22645;DHT22;11489;50.834;6.752;2024-02-04T12:30:04;12.20;98.60
22645;DHT22;11489;50.834;6.752;2024-02-04T12:32:31;12.20;98.60
22645;DHT22;11489;50.834;6.752;2024-02-04T12:34:56;12.20;98.60
22645;DHT22;11489;50.834;6.752;2024-02-04T12:37:22;12.20;98.60
22645;DHT22;11489;50.834;6.752;2024-02-04T12:39:48;12.20;98.90
22645;DHT22;11489;50.834;6.752;2024-02-04T12:42:17;12.20;98.50
22645;DHT22;11489;50.834;6.752;2024-02-04T12:44:49;12.20;98.40
22645;DHT22;11489;50.834;6.752;2024-02-04T12:47:19;12.20;98.20
22645;DHT22;11489;50.834;6.752;2024-02-04T12:49:46;12.20;98.10
22645;DHT22;11489;50.834;6.752;2024-02-04T12:52:11;12.10;98.10
22645;DHT22;11489;50.834;6.752;2024-02-04T12:54:41;12.10;98.10
22645;DHT22;11489;50.834;6.752;2024-02-04T12:57:08;12.10;98.10
22645;DHT22;11489;50.834;6.752;2024-02-04T12:59:36;12.00;98.10
22645;DHT22;11489;50.834;6.752;2024-02-04T13:02:06;12.00;98.10
22645;DHT22;11489;50.834;6.752;2024-02-04T13:04:42;11.90;98.00
22645;DHT22;11489;50.834;6.752;2024-02-04T13:07:13;11.90;97.90
22645;DHT22;11489;50.834;6.752;2024-02-04T13:09:40;11.90;97.90
22645;DHT22;11489;50.834;6.752;2024-02-04T13:12:07;11.80;97.90
22645;DHT22;11489;50.834;6.752;2024-02-04T13:14:34;11.70;97.90
22645;DHT22;11489;50.834;6.752;2024-02-04T13:17:00;11.70;98.00
22645;DHT22;11489;50.834;6.752;2024-02-04T13:19:36;11.70;98.10
22645;DHT22;11489;50.834;6.752;2024-02-04T13:22:03;11.60;98.20
22645;DHT22;11489;50.834;6.752;2024-02-04T13:24:30;11.60;98.30
22645;DHT22;11489;50.834;6.752;2024-02-04T13:26:57;11.50;98.30
22645;DHT22;11489;50.834;6.752;2024-02-04T13:29:23;11.60;98.40
22645;DHT22;11489;50.834;6.752;2024-02-04T13:31:48;11.50;98.50
22645;DHT22;11489;50.834;6.752;2024-02-04T13:34:15;11.60;98.60
22645;DHT22;11489;50.834;6.752;2024-02-04T13:36:42;11.60;98.70
22645;DHT22;11489;50.834;6.752;2024-02-04T13:39:07;11.60;98.70
22645;DHT22;11489;50.834;6.752;2024-02-04T13:41:33;11.60;98.60
22645;DHT22;11489;50.834;6.752;2024-02-04T13:43:59;11.60;98.60
22645;DHT22;11489;50.834;6.752;2024-02-04T13:46:25;11.70;98.60
22645;DHT22;11489;50.834;6.752;2024-02-04T13:48:50;11.70;98.60
22645;DHT22;11489;50.834;6.752;2024-02-04T13:51:16;11.70;98.60
22645;DHT22;11489;50.834;6.752;2024-02-04T13:53:42;11.70;98.60
22645;DHT22;11489;50.834;6.752;2024-02-04T13:56:08;11.70;98.60
22645;DHT22;11489;50.834;6.752;2024-02-04T13:58:34;11.70;98.60
22645;DHT22;11489;50.834;6.752;2024-02-04T14:00:59;11.70;98.50
22645;DHT22;11489;50.834;6.752;2024-02-04T14:03:25;11.70;98.50
22645;DHT22;11489;50.834;6.752;2024-02-04T14:05:51;11.70;98.50
22645;DHT22;11489;50.834;6.752;2024-02-04T14:08:17;11.70;98.60
22645;DHT22;11489;50.834;6.752;2024-02-04T14:10:43;11.70;98.50
22645;DHT22;11489;50.834;6.752;2024-02-04T14:13:08;11.80;98.50
22645;DHT22;11489;50.834;6.752;2024-02-04T14:15:36;11.70;98.30
22645;DHT22;11489;50.834;6.752;2024-02-04T14:18:02;11.70;98.10
22645;DHT22;11489;50.834;6.752;2024-02-04T14:20:28;11.70;98.10
22645;DHT22;11489;50.834;6.752;2024-02-04T14:22:53;11.60;98.10
22645;DHT22;11489;50.834;6.752;2024-02-04T14:25:19;11.60;98.10
22645;DHT22;11489;50.834;6.752;2024-02-04T14:27:45;11.60;98.10
22645;DHT22;11489;50.834;6.752;2024-02-04T14:30:11;11.50;98.10
22645;DHT22;11489;50.834;6.752;2024-02-04T14:32:37;11.50;98.10
22645;DHT22;11489;50.834;6.752;2024-02-04T14:35:03;11.40;98.10
22645;DHT22;11489;50.834;6.752;2024-02-04T14:37:30;11.40;98.10
22645;DHT22;11489;50.834;6.752;2024-02-04T14:39:58;11.30;98.10
22645;DHT22;11489;50.834;6.752;2024-02-04T14:42:25;11.30;98.10
22645;DHT22;11489;50.834;6.752;2024-02-04T14:44:52;11.30;98.20
22645;DHT22;11489;50.834;6.752;2024-02-04T14:47:18;11.20;98.20
22645;DHT22;11489;50.834;6.752;2024-02-04T14:49:44;11.20;98.30
22645;DHT22;11489;50.834;6.752;2024-02-04T14:52:10;11.20;98.40
22645;DHT22;11489;50.834;6.752;2024-02-04T14:54:36;11.20;98.40
22645;DHT22;11489;50.834;6.752;2024-02-04T14:57:04;11.10;98.40
22645;DHT22;11489;50.834;6.752;2024-02-04T14:59:30;11.10;98.40
22645;DHT22;11489;50.834;6.752;2024-02-04T15:01:58;11.10;98.50
22645;DHT22;11489;50.834;6.752;2024-02-04T15:04:24;11.10;98.50
22645;DHT22;11489;50.834;6.752;2024-02-04T15:06:50;11.10;98.50
22645;DHT22;11489;50.834;6.752;2024-02-04T15:09:15;11.00;98.50
22645;DHT22;11489;50.834;6.752;2024-02-04T15:11:41;11.00;98.50
22645;DHT22;11489;50.834;6.752;2024-02-04T15:14:08;11.00;98.90
22645;DHT22;11489;50.834;6.752;2024-02-04T15:16:35;11.00;98.60
22645;DHT22;11489;50.834;6.752;2024-02-04T15:19:04;11.00;98.60
22645;DHT22;11489;50.834;6.752;2024-02-04T15:21:30;11.00;98.70
22645;DHT22;11489;50.834;6.752;2024-02-04T15:23:56;10.90;98.70
22645;DHT22;11489;50.834;6.752;2024-02-04T15:26:22;11.00;98.70
22645;DHT22;11489;50.834;6.752;2024-02-04T15:28:50;11.00;98.70
22645;DHT22;11489;50.834;6.752;2024-02-04T15:31:17;11.00;98.70
22645;DHT22;11489;50.834;6.752;2024-02-04T15:33:43;11.00;98.70